Time;durP1;ratioP1;P1;durP2;ratioP2;P2;SDS_P1;SDS_P2;PMS_P1;PMS_P2;Temp;Humidity;BMP_temperature;BMP_pressure;BME280_temperature;BME280_humidity;BME280_pressure;Samples;Min_cycle;Max_cycle;Signal;HPM_P1;HPM_P2
2024/03/07 00:01:37;;;;;;;38.93;26.43;;;5.30;99.90;;;;;;4786135;29;20183;-59
2024/03/07 00:04:02;;;;;;;38.33;27.00;;;5.30;99.90;;;;;;4778941;29;20183;-56
2024/03/07 00:06:28;;;;;;;34.07;26.43;;;5.30;99.90;;;;;;4779308;29;20565;-60
2024/03/07 00:08:54;;;;;;;38.40;26.07;;;5.30;99.90;;;;;;4780082;29;20816;-55
2024/03/07 00:11:20;;;;;;;32.15;24.65;;;5.30;99.90;;;;;;4792229;29;20178;-60
2024/03/07 00:13:46;;;;;;;34.27;26.27;;;5.30;99.90;;;;;;4778899;29;20647;-59
2024/03/07 00:16:11;;;;;;;38.73;25.70;;;5.30;99.90;;;;;;4783523;29;20194;-57
2024/03/07 00:18:37;;;;;;;38.47;25.67;;;5.30;99.90;;;;;;4783925;29;20215;-60
2024/03/07 00:21:03;;;;;;;33.70;26.70;;;5.30;99.90;;;;;;4787153;29;20767;-60
2024/03/07 00:23:28;;;;;;;43.80;27.47;;;5.30;99.90;;;;;;4784840;29;20189;-61
2024/03/07 00:25:54;;;;;;;35.17;26.67;;;5.30;99.90;;;;;;4790117;29;20440;-49
2024/03/07 00:28:19;;;;;;;38.20;25.27;;;5.30;99.90;;;;;;4785369;29;20209;-42
2024/03/07 00:30:45;;;;;;;39.87;27.63;;;5.30;99.90;;;;;;4780733;29;20434;-49
2024/03/07 00:33:13;;;;;;;37.20;26.00;;;5.30;99.90;;;;;;4776522;29;20206;-45
2024/03/07 00:35:39;;;;;;;39.92;25.83;;;5.30;99.90;;;;;;4777655;29;20191;-43
2024/03/07 00:38:04;;;;;;;41.30;26.23;;;5.30;99.90;;;;;;4777325;29;20501;-45
2024/03/07 00:40:32;;;;;;;38.90;26.50;;;5.30;99.90;;;;;;4781251;29;20512;-49
2024/03/07 00:42:59;;;;;;;40.85;26.75;;;5.30;99.90;;;;;;4787320;29;20200;-47
2024/03/07 00:45:24;;;;;;;37.55;26.85;;;5.30;99.90;;;;;;4783017;29;20480;-48
2024/03/07 00:47:50;;;;;;;39.83;26.37;;;5.30;99.90;;;;;;4781119;29;20534;-43
2024/03/07 00:50:16;;;;;;;42.50;28.30;;;5.30;99.90;;;;;;4786042;29;20197;-48
2024/03/07 00:52:41;;;;;;;41.73;27.47;;;5.40;99.90;;;;;;4778855;29;20267;-47
2024/03/07 00:55:10;;;;;;;38.47;27.30;;;5.30;99.90;;;;;;4787270;29;20190;-42
2024/03/07 00:57:36;;;;;;;40.75;26.77;;;5.30;99.90;;;;;;4779756;29;20249;-45
2024/03/07 01:00:03;;;;;;;37.40;27.30;;;5.30;99.90;;;;;;4790337;29;20348;-60
2024/03/07 01:02:30;;;;;;;40.30;26.67;;;5.30;99.90;;;;;;4782055;29;20191;-59
2024/03/07 01:04:55;;;;;;;40.40;26.77;;;5.30;99.90;;;;;;4777406;29;20241;-59
2024/03/07 01:07:23;;;;;;;41.60;28.00;;;5.30;99.90;;;;;;4780629;29;20282;-59
2024/03/07 01:09:49;;;;;;;41.78;29.80;;;5.40;99.90;;;;;;4791720;29;20851;-60
2024/03/07 01:12:14;;;;;;;37.90;26.17;;;5.40;99.90;;;;;;4786987;29;20191;-59
2024/03/07 01:14:40;;;;;;;38.97;28.07;;;5.50;99.90;;;;;;4791636;29;20194;-57
2024/03/07 01:17:07;;;;;;;39.30;27.53;;;5.50;99.90;;;;;;4785674;29;20556;-60
2024/03/07 01:19:33;;;;;;;44.25;29.20;;;5.40;99.90;;;;;;4791226;29;20531;-56
2024/03/07 01:21:59;;;;;;;41.83;27.55;;;5.50;99.90;;;;;;4788616;29;20887;-60
2024/03/07 01:24:25;;;;;;;43.07;29.20;;;5.50;99.90;;;;;;4787325;29;20324;-60
2024/03/07 01:26:51;;;;;;;36.03;26.38;;;5.60;99.90;;;;;;4778078;29;20206;-47
2024/03/07 01:29:17;;;;;;;35.83;27.47;;;5.50;99.90;;;;;;4787737;29;20643;-61
2024/03/07 01:31:43;;;;;;;38.38;26.77;;;5.50;99.90;;;;;;4778452;29;20195;-60
2024/03/07 01:34:09;;;;;;;38.50;26.77;;;5.60;99.90;;;;;;4785480;29;20202;-60
2024/03/07 01:36:34;;;;;;;35.27;26.83;;;5.60;99.90;;;;;;4795595;29;20206;-60
2024/03/07 01:39:01;;;;;;;39.20;28.67;;;5.60;99.90;;;;;;4787229;29;20198;-60
2024/03/07 01:41:27;;;;;;;43.58;27.65;;;5.60;99.90;;;;;;4793285;29;20198;-60
2024/03/07 01:43:52;;;;;;;40.57;26.50;;;5.60;99.90;;;;;;4783090;29;20234;-50
2024/03/07 01:46:19;;;;;;;35.80;27.80;;;5.60;99.90;;;;;;4791316;29;20183;-42
2024/03/07 01:48:46;;;;;;;40.42;28.70;;;5.60;99.90;;;;;;4789453;29;20186;-46
2024/03/07 01:51:12;;;;;;;38.35;26.75;;;5.60;99.90;;;;;;4795339;29;20186;-43
2024/03/07 01:53:38;;;;;;;40.15;26.55;;;5.60;99.90;;;;;;4793483;29;20202;-41
2024/03/07 01:56:05;;;;;;;40.27;27.40;;;5.70;99.90;;;;;;4793170;29;20210;-47
2024/03/07 01:58:31;;;;;;;37.85;27.13;;;5.70;99.90;;;;;;4790862;29;20472;-44
2024/03/07 02:00:58;;;;;;;39.55;27.52;;;5.70;99.90;;;;;;4780450;29;20183;-60
2024/03/07 02:03:24;;;;;;;38.22;27.85;;;5.70;99.90;;;;;;4794000;29;20195;-60
2024/03/07 02:05:50;;;;;;;40.70;27.97;;;5.70;99.90;;;;;;4785597;29;20315;-60
2024/03/07 02:08:16;;;;;;;37.70;26.13;;;5.70;99.90;;;;;;4790577;29;20199;-60
2024/03/07 02:10:42;;;;;;;43.43;27.90;;;5.70;99.90;;;;;;4783113;29;20440;-61
2024/03/07 02:13:08;;;;;;;40.43;27.93;;;5.80;99.90;;;;;;4790651;29;20449;-61
2024/03/07 02:15:33;;;;;;;36.77;28.33;;;5.70;99.90;;;;;;4789255;29;20427;-60
2024/03/07 02:17:59;;;;;;;41.97;27.43;;;5.70;99.90;;;;;;4782164;29;20245;-60
2024/03/07 02:20:24;;;;;;;42.07;28.03;;;5.70;99.90;;;;;;4784120;29;20259;-60
2024/03/07 02:22:53;;;;;;;40.47;28.00;;;5.70;99.90;;;;;;4784465;29;20264;-60
2024/03/07 02:25:19;;;;;;;36.22;27.52;;;5.70;99.90;;;;;;4794888;29;20190;-60
2024/03/07 02:27:45;;;;;;;41.42;27.23;;;5.70;99.90;;;;;;4795021;29;20179;-60
2024/03/07 02:30:12;;;;;;;40.57;27.47;;;5.80;99.90;;;;;;4788486;29;20248;-60
2024/03/07 02:32:38;;;;;;;46.90;29.75;;;5.70;99.90;;;;;;4793685;29;20425;-61
2024/03/07 02:35:04;;;;;;;38.80;27.05;;;5.80;99.90;;;;;;4789373;29;20198;-54
2024/03/07 02:37:31;;;;;;;40.92;27.52;;;5.80;99.90;;;;;;4788856;29;20211;-61
2024/03/07 02:39:56;;;;;;;40.70;28.05;;;5.80;99.90;;;;;;4784196;29;20187;-60
2024/03/07 02:42:22;;;;;;;35.90;26.97;;;5.70;99.90;;;;;;4782660;29;20206;-59
2024/03/07 02:44:47;;;;;;;39.83;26.63;;;5.70;99.90;;;;;;4782486;29;20917;-54
2024/03/07 02:47:13;;;;;;;33.67;26.10;;;5.80;99.90;;;;;;4782077;29;20282;-52
2024/03/07 02:49:39;;;;;;;37.13;28.17;;;5.70;99.90;;;;;;4779772;29;20231;-60
2024/03/07 02:52:07;;;;;;;42.60;27.53;;;5.70;99.90;;;;;;4794189;29;20229;-60
2024/03/07 02:54:34;;;;;;;42.30;29.08;;;5.70;99.90;;;;;;4789742;29;20686;-63
2024/03/07 02:57:00;;;;;;;36.38;26.80;;;5.70;99.90;;;;;;4790718;29;20231;-59
2024/03/07 02:59:25;;;;;;;38.17;26.63;;;5.70;99.90;;;;;;4784790;29;20202;-59
2024/03/07 03:01:51;;;;;;;39.37;27.97;;;5.70;99.90;;;;;;4782678;29;20505;-55
2024/03/07 03:04:17;;;;;;;41.63;28.03;;;5.60;99.90;;;;;;4785422;29;20183;-59
2024/03/07 03:06:43;;;;;;;43.38;27.55;;;5.60;99.90;;;;;;4779534;29;21026;-60
2024/03/07 03:09:13;;;;;;;36.33;27.33;;;5.60;99.90;;;;;;4782313;29;20202;-62
2024/03/07 03:11:39;;;;;;;40.42;28.10;;;5.60;99.90;;;;;;4779689;29;20183;-44
2024/03/07 03:14:05;;;;;;;38.10;26.97;;;5.60;99.90;;;;;;4781507;29;20199;-44
2024/03/07 03:16:31;;;;;;;42.67;27.33;;;5.70;99.90;;;;;;4777139;29;20468;-63
2024/03/07 03:18:57;;;;;;;37.40;27.05;;;5.70;99.90;;;;;;4782023;29;20527;-59
2024/03/07 03:21:23;;;;;;;46.85;27.85;;;5.60;99.90;;;;;;4779147;29;20260;-60
2024/03/07 03:23:48;;;;;;;36.07;25.97;;;5.60;99.90;;;;;;4780343;29;20585;-60
2024/03/07 03:26:15;;;;;;;41.67;27.70;;;5.60;99.90;;;;;;4786358;29;20255;-60
2024/03/07 03:28:41;;;;;;;38.92;27.13;;;5.60;99.90;;;;;;4789767;29;20202;-63
2024/03/07 03:31:08;;;;;;;41.23;28.33;;;5.60;99.90;;;;;;4784594;29;20545;-59
2024/03/07 03:33:34;;;;;;;40.72;27.42;;;5.60;99.90;;;;;;4781961;29;20214;-58
2024/03/07 03:35:59;;;;;;;47.07;28.23;;;5.60;99.90;;;;;;4787447;29;20195;-61
2024/03/07 03:38:25;;;;;;;38.63;27.50;;;5.60;99.90;;;;;;4790233;29;20492;-60
2024/03/07 03:40:51;;;;;;;39.13;27.50;;;5.60;99.90;;;;;;4787208;29;20561;-61
2024/03/07 03:43:16;;;;;;;36.97;26.93;;;5.50;99.90;;;;;;4792831;29;20191;-59
2024/03/07 03:45:42;;;;;;;40.43;27.83;;;5.50;99.90;;;;;;4777339;29;20305;-60
2024/03/07 03:48:08;;;;;;;41.27;27.33;;;5.50;99.90;;;;;;4778829;29;20195;-49
2024/03/07 03:50:34;;;;;;;49.10;27.20;;;5.40;99.90;;;;;;4780067;29;20433;-53
2024/03/07 03:53:01;;;;;;;41.83;28.20;;;5.40;99.90;;;;;;4780129;29;20916;-60
2024/03/07 03:55:27;;;;;;;41.22;28.60;;;5.40;99.90;;;;;;4779972;29;20664;-45
2024/03/07 03:57:53;;;;;;;39.10;26.47;;;5.40;99.90;;;;;;4788277;29;20217;-48
2024/03/07 04:00:22;;;;;;;41.30;26.87;;;5.40;99.90;;;;;;4786533;29;20182;-45
2024/03/07 04:02:48;;;;;;;40.88;26.42;;;5.40;99.90;;;;;;4780680;29;20564;-45
2024/03/07 04:05:15;;;;;;;38.17;27.73;;;5.40;99.90;;;;;;4781556;29;20227;-46
2024/03/07 04:07:44;;;;;;;41.08;28.25;;;5.50;99.90;;;;;;4784319;29;20255;-45
2024/03/07 04:10:11;;;;;;;34.75;26.13;;;5.50;99.90;;;;;;4784720;29;20270;-48
2024/03/07 04:12:39;;;;;;;35.53;26.13;;;5.50;99.90;;;;;;4783731;29;20191;-50
2024/03/07 04:15:13;;;;;;;42.72;27.65;;;5.50;99.90;;;;;;4787180;29;20532;-43
2024/03/07 04:17:39;;;;;;;38.92;26.35;;;5.50;99.90;;;;;;4790807;29;20226;-47
2024/03/07 04:20:06;;;;;;;42.03;29.03;;;5.50;99.90;;;;;;4789741;29;20236;-48
2024/03/07 04:22:38;;;;;;;40.08;28.10;;;5.50;99.90;;;;;;4783725;29;20424;-45
2024/03/07 04:25:06;;;;;;;42.60;28.63;;;5.50;99.90;;;;;;4784002;29;20340;-46
2024/03/07 04:27:34;;;;;;;42.95;29.20;;;5.40;99.90;;;;;;4785915;29;20201;-46
2024/03/07 04:30:02;;;;;;;38.45;28.98;;;5.30;99.90;;;;;;4777878;29;20631;-48
2024/03/07 04:32:28;;;;;;;41.63;28.65;;;5.30;99.90;;;;;;4780753;29;20207;-45
2024/03/07 04:34:57;;;;;;;43.40;27.90;;;5.20;99.90;;;;;;4780294;29;20199;-47
2024/03/07 04:37:23;;;;;;;47.35;31.23;;;5.10;99.90;;;;;;4781042;29;20666;-42
2024/03/07 04:39:48;;;;;;;42.20;29.00;;;5.10;99.90;;;;;;4791537;29;20421;-42
2024/03/07 04:42:14;;;;;;;43.60;29.40;;;4.90;99.90;;;;;;4780199;29;20472;-45
2024/03/07 04:44:39;;;;;;;40.33;28.80;;;4.90;99.90;;;;;;4782950;29;20570;-48
2024/03/07 04:47:06;;;;;;;41.30;28.50;;;4.80;99.90;;;;;;4777391;29;20206;-44
2024/03/07 04:49:32;;;;;;;41.45;29.77;;;4.80;99.90;;;;;;4783790;29;20191;-45
2024/03/07 04:52:00;;;;;;;43.20;28.17;;;4.70;98.50;;;;;;4782388;29;20615;-43
2024/03/07 04:54:27;;;;;;;41.92;28.73;;;4.70;89.50;;;;;;4776610;29;20293;-44
2024/03/07 04:56:53;;;;;;;38.55;27.98;;;4.70;35.50;;;;;;4783054;29;20222;-44
2024/03/07 04:59:20;;;;;;;40.22;29.27;;;4.70;17.90;;;;;;4787612;29;20208;-44
2024/03/07 05:01:47;;;;;;;48.13;31.52;;;4.70;1.00;;;;;;4783096;29;20367;-46
2024/03/07 05:04:13;;;;;;;40.20;28.95;;;4.70;1.00;;;;;;4786035;29;20217;-55
2024/03/07 05:06:39;;;;;;;41.78;29.20;;;4.70;1.00;;;;;;4784983;29;20670;-59
2024/03/07 05:09:07;;;;;;;33.90;26.60;;;4.70;1.00;;;;;;4785214;29;20191;-43
2024/03/07 05:11:34;;;;;;;41.85;28.80;;;4.70;1.00;;;;;;4790876;29;20178;-44
2024/03/07 05:14:00;;;;;;;38.58;29.42;;;4.70;1.00;;;;;;4780863;29;20230;-46
2024/03/07 05:16:31;;;;;;;42.85;29.10;;;4.60;1.00;;;;;;4780149;29;20302;-44
2024/03/07 05:19:00;;;;;;;42.70;28.45;;;4.60;1.00;;;;;;4787904;29;20622;-44
2024/03/07 05:21:34;;;;;;;38.10;28.40;;;4.60;1.00;;;;;;4783010;29;20182;-43
2024/03/07 05:24:01;;;;;;;37.95;27.65;;;4.60;1.00;;;;;;4788853;29;20248;-44
2024/03/07 05:26:27;;;;;;;36.83;27.88;;;4.50;1.00;;;;;;4788402;29;20193;-44
2024/03/07 05:28:55;;;;;;;39.33;26.60;;;4.40;99.90;;;;;;4790806;29;20560;-44
2024/03/07 05:31:21;;;;;;;38.90;27.95;;;4.40;99.90;;;;;;4790544;29;20198;-43
2024/03/07 05:33:47;;;;;;;36.60;28.30;;;4.30;99.90;;;;;;4787257;29;20970;-45
2024/03/07 05:36:14;;;;;;;33.35;26.90;;;4.30;99.90;;;;;;4791534;29;21291;-45
2024/03/07 05:38:44;;;;;;;35.30;27.10;;;4.20;99.90;;;;;;4786504;29;20221;-43
2024/03/07 05:41:12;;;;;;;35.03;26.38;;;4.20;99.90;;;;;;4792383;29;20236;-40
2024/03/07 05:43:38;;;;;;;32.97;27.13;;;4.10;99.90;;;;;;4781904;29;20183;-44
2024/03/07 05:46:05;;;;;;;37.95;27.40;;;4.10;99.90;;;;;;4782363;29;20250;-44
2024/03/07 05:48:31;;;;;;;34.70;26.23;;;4.00;99.90;;;;;;4792122;29;20195;-40
2024/03/07 05:50:57;;;;;;;41.28;28.10;;;4.00;99.90;;;;;;4789160;29;20199;-44
2024/03/07 05:53:23;;;;;;;37.63;27.02;;;3.90;99.90;;;;;;4782223;29;20195;-40
2024/03/07 05:55:48;;;;;;;37.67;26.63;;;3.90;99.90;;;;;;4790948;29;20206;-41
2024/03/07 05:58:14;;;;;;;38.17;25.87;;;3.80;1.00;;;;;;4788318;29;20309;-44
2024/03/07 06:00:42;;;;;;;37.97;25.37;;;3.80;1.00;;;;;;4788809;29;20195;-45
2024/03/07 06:03:08;;;;;;;31.38;24.30;;;3.80;1.00;;;;;;4789143;29;20194;-60
2024/03/07 06:05:34;;;;;;;32.90;25.97;;;3.70;1.00;;;;;;4794941;29;20250;-59
2024/03/07 06:07:59;;;;;;;39.93;27.83;;;3.60;1.00;;;;;;4791485;29;20676;-52
2024/03/07 06:10:25;;;;;;;33.33;24.63;;;3.60;1.00;;;;;;4794771;29;20275;-62
2024/03/07 06:12:52;;;;;;;35.90;25.35;;;3.60;1.00;;;;;;4787941;29;20248;-56
2024/03/07 06:15:18;;;;;;;34.15;25.70;;;3.50;1.00;;;;;;4790012;29;20646;-42
2024/03/07 06:17:46;;;;;;;34.63;24.87;;;3.40;1.00;;;;;;4785310;29;20241;-41
2024/03/07 06:20:22;;;;;;;39.38;27.60;;;3.40;1.00;;;;;;4794693;29;20183;-43
2024/03/07 06:22:50;;;;;;;34.90;25.58;;;3.40;1.00;;;;;;4790405;29;20198;-44
2024/03/07 06:25:20;;;;;;;36.03;26.85;;;3.50;1.00;;;;;;4795079;29;20183;-42
2024/03/07 06:27:48;;;;;;;33.67;25.67;;;3.50;1.00;;;;;;4787064;29;20287;-46
2024/03/07 06:30:18;;;;;;;34.67;26.20;;;3.60;1.00;;;;;;4790257;29;20222;-47
2024/03/07 06:32:45;;;;;;;42.08;29.52;;;3.70;1.00;;;;;;4790966;29;20681;-61
2024/03/07 06:35:10;;;;;;;38.47;28.80;;;3.80;1.00;;;;;;4793372;29;20278;-60
2024/03/07 06:37:36;;;;;;;39.23;27.10;;;3.90;1.00;;;;;;4790271;29;20719;-59
2024/03/07 06:40:09;;;;;;;42.93;29.40;;;4.00;99.90;;;;;;4787937;29;20190;-60
2024/03/07 06:42:36;;;;;;;41.90;27.02;;;4.10;99.90;;;;;;4782432;29;20183;-60
2024/03/07 06:45:03;;;;;;;40.33;28.83;;;4.20;99.90;;;;;;4794844;29;20187;-61
2024/03/07 06:47:28;;;;;;;42.33;27.08;;;4.20;99.90;;;;;;4787242;29;20199;-61
2024/03/07 06:49:56;;;;;;;36.23;28.40;;;4.30;99.90;;;;;;4794792;29;20186;-61
2024/03/07 06:52:21;;;;;;;40.70;28.27;;;4.50;96.00;;;;;;4794697;29;20490;-43
2024/03/07 06:54:47;;;;;;;39.60;28.97;;;4.40;1.00;;;;;;4794583;29;20383;-43
2024/03/07 06:57:13;;;;;;;37.57;28.03;;;4.70;1.00;;;;;;4781810;29;20212;-41
2024/03/07 06:59:38;;;;;;;38.00;27.73;;;4.80;99.90;;;;;;4784530;29;20638;-43
2024/03/07 07:02:04;;;;;;;38.47;28.00;;;4.90;18.80;;;;;;4792983;29;20713;-42
2024/03/07 07:04:41;;;;;;;37.57;27.63;;;5.00;99.90;;;;;;4784489;29;20191;-42
2024/03/07 07:07:08;;;;;;;37.28;26.92;;;5.10;1.00;;;;;;4781205;29;20301;-42
2024/03/07 07:09:35;;;;;;;37.65;26.58;;;5.20;1.00;;;;;;4786535;29;20201;-46
2024/03/07 07:12:03;;;;;;;37.70;25.27;;;5.10;99.90;;;;;;4791552;29;20214;-61
2024/03/07 07:14:29;;;;;;;30.52;24.42;;;5.20;1.00;;;;;;4784080;29;20287;-61
2024/03/07 07:16:55;;;;;;;33.63;25.77;;;5.00;99.90;;;;;;4793742;29;20636;-61
2024/03/07 07:19:21;;;;;;;34.60;24.67;;;5.10;35.60;;;;;;4788861;29;20496;-60
2024/03/07 07:21:53;;;;;;;37.43;25.40;;;5.00;1.00;;;;;;4793448;29;20195;-60
2024/03/07 07:24:22;;;;;;;36.17;24.60;;;4.90;1.00;;;;;;4786541;29;20420;-57
2024/03/07 07:26:48;;;;;;;32.45;23.80;;;4.80;1.00;;;;;;4784088;29;20194;-41
2024/03/07 07:29:15;;;;;;;32.53;25.57;;;4.80;1.00;;;;;;4777812;29;20665;-41
2024/03/07 07:31:40;;;;;;;30.00;23.88;;;4.80;1.00;;;;;;4789642;29;20225;-59
2024/03/07 07:34:06;;;;;;;31.70;26.10;;;4.70;1.00;;;;;;4790171;29;20274;-62
2024/03/07 07:36:32;;;;;;;35.27;25.07;;;4.80;1.00;;;;;;4786721;29;20187;-60
2024/03/07 07:38:58;;;;;;;33.50;25.17;;;4.90;1.00;;;;;;4783121;29;20219;-54
2024/03/07 07:41:23;;;;;;;33.60;26.30;;;4.80;99.90;;;;;;4789358;29;20195;-59
2024/03/07 07:43:50;;;;;;;30.23;22.33;;;4.80;99.90;;;;;;4784946;29;20493;-60
2024/03/07 07:46:17;;;;;;;28.80;23.38;;;4.90;1.00;;;;;;4793201;29;20175;-60
2024/03/07 07:48:43;;;;;;;31.45;24.48;;;5.00;1.00;;;;;;4789315;29;20338;-51
2024/03/07 07:51:09;;;;;;;30.48;23.80;;;5.10;1.00;;;;;;4791380;29;20190;-60
2024/03/07 07:53:35;;;;;;;30.40;23.20;;;5.20;99.90;;;;;;4789014;29;20243;-60
2024/03/07 07:56:01;;;;;;;25.47;21.40;;;5.40;99.90;;;;;;4786568;29;20389;-60
2024/03/07 07:58:26;;;;;;;29.53;23.90;;;5.50;99.90;;;;;;4782896;29;20477;-59
2024/03/07 08:00:52;;;;;;;27.97;22.80;;;5.80;1.00;;;;;;4781992;29;20611;-42
2024/03/07 08:03:18;;;;;;;27.70;22.73;;;5.90;1.00;;;;;;4791004;29;20187;-43
2024/03/07 08:05:44;;;;;;;25.10;21.87;;;6.00;1.00;;;;;;4792017;29;20373;-44
2024/03/07 08:08:13;;;;;;;27.52;21.77;;;6.20;99.90;;;;;;4790460;29;20441;-42
2024/03/07 08:10:41;;;;;;;25.07;21.30;;;6.30;99.90;;;;;;4783660;29;20208;-49
2024/03/07 08:13:08;;;;;;;23.27;20.87;;;6.40;99.90;;;;;;4792105;29;21045;-41
2024/03/07 08:15:33;;;;;;;27.33;22.40;;;6.50;56.10;;;;;;4783876;29;20432;-43
2024/03/07 08:17:59;;;;;;;29.43;22.93;;;6.60;1.20;;;;;;4802575;29;20499;-48
2024/03/07 08:20:26;;;;;;;27.53;22.30;;;6.90;1.00;;;;;;4785996;29;20278;-44
2024/03/07 08:22:56;;;;;;;26.10;20.40;;;7.10;1.00;;;;;;4790753;29;20488;-46
2024/03/07 08:25:24;;;;;;;25.60;22.07;;;7.30;1.00;;;;;;4780585;29;20449;-45
2024/03/07 08:27:51;;;;;;;25.17;22.67;;;7.50;1.00;;;;;;4783522;29;20450;-44
2024/03/07 08:30:17;;;;;;;24.93;21.83;;;7.70;1.00;;;;;;4789132;29;20489;-51
2024/03/07 08:32:44;;;;;;;23.07;20.60;;;8.70;99.90;;;;;;4791706;29;20940;-49
2024/03/07 08:35:11;;;;;;;22.97;20.63;;;8.40;1.00;;;;;;4792591;29;20919;-45
2024/03/07 08:37:41;;;;;;;24.87;22.30;;;8.70;1.00;;;;;;4782275;29;20661;-45
2024/03/07 08:40:09;;;;;;;26.17;22.20;;;9.00;1.00;;;;;;4783828;29;20508;-48
2024/03/07 08:42:36;;;;;;;29.23;24.53;;;9.40;1.00;;;;;;4783545;29;20498;-47
2024/03/07 08:45:05;;;;;;;24.13;21.47;;;9.70;1.00;;;;;;4786047;29;20765;-45
2024/03/07 08:47:35;;;;;;;25.43;21.90;;;10.10;1.00;;;;;;4787909;29;20886;-63
2024/03/07 08:50:05;;;;;;;23.57;21.47;;;10.30;99.90;;;;;;4785941;29;20798;-59
2024/03/07 08:52:32;;;;;;;22.10;19.80;;;10.50;99.90;;;;;;4785494;29;20554;-53
2024/03/07 08:54:57;;;;;;;22.03;19.77;;;10.60;99.90;;;;;;4788325;29;20457;-61
2024/03/07 08:57:23;;;;;;;23.03;20.67;;;10.40;99.90;;;;;;4807084;29;20536;-61
2024/03/07 08:59:49;;;;;;;21.43;19.37;;;10.00;99.90;;;;;;4788319;29;20191;-62
2024/03/07 09:02:16;;;;;;;23.20;21.00;;;9.70;99.90;;;;;;4777053;29;20199;-42
2024/03/07 09:04:41;;;;;;;21.70;19.60;;;9.10;99.90;;;;;;4785703;29;21131;-43
2024/03/07 09:07:07;;;;;;;21.97;19.83;;;8.90;99.90;;;;;;4784485;29;20725;-42
2024/03/07 09:09:34;;;;;;;21.50;19.30;;;8.60;1.00;;;;;;4786368;29;20270;-46
2024/03/07 09:12:05;;;;;;;19.50;17.70;;;8.10;1.00;;;;;;4787174;29;20452;-42
2024/03/07 09:14:31;;;;;;;20.20;18.30;;;8.70;99.90;;;;;;4790642;29;20450;-47
2024/03/07 09:16:56;;;;;;;20.07;18.03;;;8.50;99.90;;;;;;4778652;29;20445;-42
2024/03/07 09:19:24;;;;;;;20.43;18.57;;;8.20;99.90;;;;;;4787616;29;20545;-47
2024/03/07 09:21:52;;;;;;;22.10;19.90;;;8.10;99.90;;;;;;4777037;29;20581;-44
2024/03/07 09:24:21;;;;;;;22.17;19.87;;;8.10;99.90;;;;;;4791611;29;20508;-44
2024/03/07 09:26:48;;;;;;;21.80;19.50;;;8.00;99.90;;;;;;4785091;29;20857;-44
2024/03/07 09:29:14;;;;;;;21.23;19.10;;;8.00;99.90;;;;;;4791861;29;20530;-47
2024/03/07 09:31:40;;;;;;;23.00;20.67;;;8.00;99.90;;;;;;4785737;29;20444;-60
2024/03/07 09:34:05;;;;;;;22.50;20.40;;;8.10;99.90;;;;;;4785442;29;20971;-62
2024/03/07 09:36:31;;;;;;;22.60;20.20;;;8.20;99.90;;;;;;4787861;29;20722;-49
2024/03/07 09:38:57;;;;;;;20.07;18.17;;;8.30;99.90;;;;;;4792289;29;20207;-56
2024/03/07 09:41:25;;;;;;;21.47;19.50;;;8.30;99.90;;;;;;4788906;29;20595;-54
2024/03/07 09:43:55;;;;;;;22.57;20.30;;;8.30;99.90;;;;;;4791315;29;20944;-47
2024/03/07 09:46:23;;;;;;;22.63;20.17;;;8.20;99.90;;;;;;4784348;29;20718;-60
2024/03/07 09:48:54;;;;;;;23.10;19.87;;;8.10;99.90;;;;;;4790749;29;20436;-60
2024/03/07 09:51:21;;;;;;;22.10;19.80;;;8.10;99.90;;;;;;4781712;29;20486;-59
2024/03/07 09:53:51;;;;;;;20.83;18.83;;;8.10;99.90;;;;;;4792390;29;21246;-59
2024/03/07 09:56:31;;;;;;;22.83;20.63;;;8.20;99.90;;;;;;4782412;29;20832;-60
2024/03/07 09:58:59;;;;;;;20.60;18.60;;;8.20;99.90;;;;;;4794299;29;20820;-61
2024/03/07 10:01:26;;;;;;;22.30;19.90;;;8.20;99.90;;;;;;4786166;29;20868;-58
2024/03/07 10:04:11;;;;;;;23.67;21.30;;;8.20;99.90;;;;;;4787801;29;20894;-52
2024/03/07 10:06:38;;;;;;;23.00;20.57;;;8.20;99.90;;;;;;4784275;29;20611;-58
2024/03/07 10:09:05;;;;;;;23.17;20.97;;;8.30;99.90;;;;;;4795526;29;20503;-60
2024/03/07 10:11:31;;;;;;;21.57;19.33;;;8.30;99.90;;;;;;4790487;29;20456;-47
2024/03/07 10:13:56;;;;;;;22.90;20.50;;;8.30;99.90;;;;;;4786969;29;20814;-46
2024/03/07 10:16:22;;;;;;;22.53;20.23;;;8.40;99.90;;;;;;4791685;29;20194;-44
2024/03/07 10:18:50;;;;;;;22.83;20.33;;;8.40;99.90;;;;;;4787844;29;20226;-44
2024/03/07 10:21:19;;;;;;;23.80;21.30;;;8.50;99.90;;;;;;4793019;29;20461;-42
2024/03/07 10:23:45;;;;;;;23.03;20.83;;;8.50;99.90;;;;;;4789212;29;20451;-59
2024/03/07 10:26:10;;;;;;;23.53;21.20;;;8.60;99.90;;;;;;4790800;29;20445;-60
2024/03/07 10:28:38;;;;;;;23.00;20.60;;;8.50;99.90;;;;;;4787971;29;20207;-59
2024/03/07 10:31:09;;;;;;;24.67;21.97;;;8.60;99.90;;;;;;4786246;29;20538;-59
2024/03/07 10:33:34;;;;;;;24.47;21.83;;;8.60;99.90;;;;;;4789083;29;20448;-60
2024/03/07 10:36:01;;;;;;;23.17;20.77;;;8.60;99.90;;;;;;4789200;29;20771;-59
2024/03/07 10:38:27;;;;;;;26.40;23.60;;;8.50;99.90;;;;;;4780713;29;20237;-58
2024/03/07 10:40:55;;;;;;;26.53;23.90;;;8.50;99.90;;;;;;4791097;29;20456;-60
2024/03/07 10:43:21;;;;;;;25.33;22.73;;;8.60;99.90;;;;;;4786707;29;21128;-59
2024/03/07 10:45:48;;;;;;;26.40;23.67;;;8.60;99.90;;;;;;4786637;29;20845;-59
2024/03/07 10:48:17;;;;;;;25.83;23.13;;;8.50;99.90;;;;;;4790939;29;20478;-54
2024/03/07 10:50:47;;;;;;;25.43;22.67;;;8.50;99.90;;;;;;4790307;29;20455;-60
2024/03/07 10:53:22;;;;;;;26.60;23.00;;;8.50;99.90;;;;;;4788001;29;20783;-61
2024/03/07 10:56:17;;;;;;;27.03;24.03;;;8.40;99.90;;;;;;4793809;29;20424;-59
2024/03/07 10:58:55;;;;;;;26.87;24.03;;;8.20;99.90;;;;;;4784384;29;20487;-59
2024/03/07 11:01:25;;;;;;;27.13;24.23;;;8.10;99.90;;;;;;4782642;29;20471;-57
2024/03/07 11:03:52;;;;;;;27.80;23.47;;;8.20;99.90;;;;;;4791422;29;20428;-60
2024/03/07 11:06:18;;;;;;;26.33;23.70;;;8.40;99.90;;;;;;4788823;29;20489;-50
2024/03/07 11:08:45;;;;;;;26.87;23.97;;;8.30;99.90;;;;;;4777320;29;20976;-59
2024/03/07 11:11:12;;;;;;;27.30;22.63;;;8.20;99.90;;;;;;4779819;29;20714;-60
2024/03/07 11:13:39;;;;;;;26.07;23.17;;;8.30;99.90;;;;;;4786929;29;20463;-57
2024/03/07 11:16:05;;;;;;;23.83;21.03;;;8.30;99.90;;;;;;4781297;29;20894;-60
2024/03/07 11:18:31;;;;;;;25.47;21.97;;;8.30;99.90;;;;;;4793367;29;20578;-59
2024/03/07 11:20:57;;;;;;;24.90;21.80;;;8.20;99.90;;;;;;4783453;29;21192;-49
2024/03/07 11:23:38;;;;;;;24.60;22.00;;;8.10;99.90;;;;;;4786129;29;20736;-60
2024/03/07 11:26:08;;;;;;;28.00;22.90;;;8.00;99.90;;;;;;4783098;29;20887;-60
2024/03/07 11:28:39;;;;;;;28.00;23.90;;;8.00;99.90;;;;;;4789886;29;20580;-45
2024/03/07 11:31:27;;;;;;;26.73;22.07;;;8.10;99.90;;;;;;4783144;29;20431;-41
2024/03/07 11:34:15;;;;;;;25.03;22.37;;;8.00;99.90;;;;;;4789448;29;20463;-59
2024/03/07 11:36:53;;;;;;;23.77;21.27;;;7.90;99.90;;;;;;4786241;29;20819;-59
2024/03/07 11:39:47;;;;;;;24.93;22.20;;;7.80;99.90;;;;;;4787847;29;20440;-59
2024/03/07 11:42:43;;;;;;;22.70;20.40;;;7.80;99.90;;;;;;4793562;29;20420;-60
2024/03/07 11:45:08;;;;;;;24.37;21.73;;;7.80;99.90;;;;;;4780961;29;20937;-53
2024/03/07 11:47:38;;;;;;;25.00;22.40;;;7.90;99.90;;;;;;4782157;29;21336;-59
2024/03/07 11:50:11;;;;;;;24.93;22.50;;;7.90;99.90;;;;;;4791711;29;20214;-60
2024/03/07 11:52:41;;;;;;;23.90;21.03;;;7.90;99.90;;;;;;4789397;29;20478;-59
2024/03/07 11:55:08;;;;;;;26.53;23.63;;;7.80;99.90;;;;;;4793912;29;21019;-60
2024/03/07 11:57:34;;;;;;;25.10;22.50;;;7.90;99.90;;;;;;4788002;29;20487;-60
2024/03/07 12:00:11;;;;;;;26.60;22.30;;;7.80;99.90;;;;;;4775771;29;20440;-60
2024/03/07 12:02:38;;;;;;;27.43;23.07;;;7.80;99.90;;;;;;4788858;29;20769;-60
2024/03/07 12:05:07;;;;;;;24.80;21.37;;;7.70;99.90;;;;;;4781750;29;20440;-59
2024/03/07 12:07:33;;;;;;;27.03;24.23;;;7.60;99.90;;;;;;4776725;29;20991;-54
2024/03/07 12:10:03;;;;;;;26.57;23.80;;;7.70;99.90;;;;;;4788274;29;20440;-50
2024/03/07 12:12:29;;;;;;;25.10;22.50;;;7.70;99.90;;;;;;4791809;29;20558;-51
2024/03/07 12:14:55;;;;;;;25.53;23.00;;;7.50;99.90;;;;;;4788224;29;20447;-58
2024/03/07 12:17:22;;;;;;;27.50;24.60;;;7.40;99.90;;;;;;4779784;29;20865;-59
2024/03/07 12:19:51;;;;;;;25.47;22.87;;;7.40;99.90;;;;;;4783849;29;20827;-60
2024/03/07 12:22:23;;;;;;;24.60;22.10;;;7.30;99.90;;;;;;4786209;29;20449;-59
2024/03/07 12:25:03;;;;;;;24.63;22.20;;;7.30;99.90;;;;;;4788850;29;20456;-63
2024/03/07 12:27:32;;;;;;;26.67;21.33;;;7.40;99.90;;;;;;4792059;29;20548;-59
2024/03/07 12:29:57;;;;;;;24.10;21.67;;;7.40;99.90;;;;;;4776276;29;20811;-60
2024/03/07 12:32:24;;;;;;;23.47;21.03;;;7.40;99.90;;;;;;4789818;29;20460;-60
2024/03/07 12:34:52;;;;;;;24.30;21.70;;;7.40;99.90;;;;;;4789853;29;20811;-55
2024/03/07 12:37:18;;;;;;;23.83;21.33;;;7.40;99.90;;;;;;4792404;29;20483;-59
2024/03/07 12:39:48;;;;;;;22.87;20.37;;;7.30;99.90;;;;;;4782136;29;20437;-59